createdAt,value
2022-08-27T00:00:15.559Z,2.63
2022-08-27T00:02:43.255Z,2.03
2022-08-27T00:05:11.938Z,2.42
2022-08-27T00:07:39.184Z,2.55
2022-08-27T00:10:08.230Z,2.13
2022-08-27T00:12:35.333Z,2.45
2022-08-27T00:15:03.557Z,2.38
2022-08-27T00:17:30.165Z,2.70
2022-08-27T00:19:56.804Z,2.22
2022-08-27T00:22:23.374Z,2.90
2022-08-27T00:24:49.862Z,3.03
2022-08-27T00:27:16.726Z,3.42
2022-08-27T00:29:43.328Z,2.58
2022-08-27T00:32:09.963Z,2.15
2022-08-27T00:34:36.717Z,2.63
2022-08-27T00:37:03.607Z,2.33
2022-08-27T00:39:30.326Z,2.67
2022-08-27T00:41:56.839Z,2.80
2022-08-27T00:44:23.549Z,2.88
2022-08-27T00:46:54.297Z,2.80
2022-08-27T00:49:23.288Z,2.72
2022-08-27T00:51:55.935Z,3.10
2022-08-27T00:54:23.238Z,3.03
2022-08-27T00:56:51.698Z,2.65
2022-08-27T00:59:21.468Z,3.00
2022-08-27T01:02:06.243Z,2.70
2022-08-27T01:04:34.659Z,2.75
2022-08-27T01:07:02.431Z,2.72
2022-08-27T01:09:29.530Z,2.75
2022-08-27T01:11:58.099Z,2.80
2022-08-27T01:14:25.289Z,2.60
2022-08-27T01:16:56.578Z,2.97
2022-08-27T01:19:32.267Z,2.45
2022-08-27T01:22:28.652Z,2.60
2022-08-27T01:24:58.672Z,2.58
2022-08-27T01:27:28.234Z,2.65
2022-08-27T01:29:55.286Z,3.10
2022-08-27T01:32:25.570Z,3.03
2022-08-27T01:34:52.717Z,3.10
2022-08-27T01:37:24.037Z,2.67
2022-08-27T01:39:52.518Z,3.53
2022-08-27T01:42:20.665Z,3.08
2022-08-27T01:44:57.013Z,3.17
2022-08-27T01:47:30.309Z,3.20
2022-08-27T01:49:57.924Z,2.97
2022-08-27T01:52:27.732Z,3.45
2022-08-27T01:54:54.771Z,3.17
2022-08-27T01:57:25.809Z,3.17
2022-08-27T01:59:52.628Z,3.20
2022-08-27T02:02:19.222Z,3.53
2022-08-27T02:04:45.799Z,2.90
2022-08-27T02:07:12.859Z,3.03
2022-08-27T02:09:39.463Z,3.13
2022-08-27T02:12:06.324Z,3.38
2022-08-27T02:14:32.881Z,3.25
2022-08-27T02:16:59.402Z,3.35
2022-08-27T02:19:26.919Z,3.30
2022-08-27T02:21:53.830Z,3.08
2022-08-27T02:24:20.395Z,3.08
2022-08-27T02:26:46.894Z,3.35
2022-08-27T02:29:13.423Z,3.20
2022-08-27T02:31:41.336Z,3.30
2022-08-27T02:34:08.461Z,3.08
2022-08-27T02:36:37.271Z,3.30
2022-08-27T02:39:06.097Z,3.05
2022-08-27T02:41:32.582Z,3.03
2022-08-27T02:43:59.076Z,3.10
2022-08-27T02:46:27.790Z,2.97
2022-08-27T02:48:54.374Z,3.33
2022-08-27T02:51:21.031Z,3.08
2022-08-27T02:53:48.537Z,3.63
2022-08-27T02:56:15.129Z,3.72
2022-08-27T02:58:48.673Z,3.42
2022-08-27T03:01:15.582Z,3.28
2022-08-27T03:03:42.134Z,3.60
2022-08-27T03:06:08.863Z,3.72
2022-08-27T03:08:51.958Z,3.40
2022-08-27T03:11:19.053Z,3.88
2022-08-27T03:13:45.532Z,3.88
2022-08-27T03:16:12.046Z,3.33
2022-08-27T03:18:38.599Z,3.63
2022-08-27T03:21:05.122Z,3.85
2022-08-27T03:23:35.271Z,3.80
2022-08-27T03:26:05.374Z,3.10
2022-08-27T03:28:36.179Z,3.55
2022-08-27T03:31:06.614Z,3.83
2022-08-27T03:33:38.657Z,3.78
2022-08-27T03:36:07.512Z,4.00
2022-08-27T03:38:35.734Z,3.83
2022-08-27T03:41:03.126Z,3.80
2022-08-27T03:43:29.704Z,3.65
2022-08-27T03:46:01.806Z,3.58
2022-08-27T03:48:32.729Z,3.60
2022-08-27T03:51:03.482Z,3.60
2022-08-27T03:53:29.995Z,4.28
2022-08-27T03:55:56.572Z,3.85
2022-08-27T03:58:23.065Z,4.13
2022-08-27T04:00:49.587Z,3.67
2022-08-27T04:03:16.132Z,3.53
2022-08-27T04:05:45.447Z,3.70
2022-08-27T04:08:13.318Z,3.42
2022-08-27T04:10:42.735Z,3.40
2022-08-27T04:13:09.386Z,4.07
2022-08-27T04:15:39.494Z,3.97
2022-08-27T04:18:07.487Z,3.85
2022-08-27T04:20:35.745Z,3.60
2022-08-27T04:23:02.954Z,3.85
2022-08-27T04:25:29.513Z,3.70
2022-08-27T04:27:56.169Z,3.60
2022-08-27T04:30:22.681Z,3.67
2022-08-27T04:32:49.394Z,4.30
2022-08-27T04:35:16.278Z,3.90
2022-08-27T04:37:43.250Z,3.47
2022-08-27T04:40:10.285Z,3.97
2022-08-27T04:42:36.888Z,3.67
2022-08-27T04:45:04.673Z,3.83
2022-08-27T04:47:31.310Z,4.28
2022-08-27T04:49:57.904Z,3.60
2022-08-27T04:52:25.006Z,3.85
2022-08-27T04:54:52.098Z,4.20
2022-08-27T04:57:18.871Z,3.97
2022-08-27T04:59:45.573Z,4.03
2022-08-27T05:02:12.313Z,3.50
2022-08-27T05:04:40.643Z,3.80
2022-08-27T05:07:09.188Z,4.05
2022-08-27T05:09:36.469Z,3.95
2022-08-27T05:12:03.636Z,3.88
2022-08-27T05:14:30.543Z,4.35
2022-08-27T05:17:00.448Z,3.53
2022-08-27T05:19:27.580Z,4.78
2022-08-27T05:21:54.082Z,3.65
2022-08-27T05:24:21.490Z,3.83
2022-08-27T05:26:49.586Z,3.72
2022-08-27T05:29:16.958Z,3.47
2022-08-27T05:31:43.649Z,4.97
2022-08-27T05:34:18.718Z,3.58
2022-08-27T05:36:53.199Z,4.30
2022-08-27T05:39:19.757Z,3.78
2022-08-27T05:41:46.301Z,3.97
2022-08-27T05:44:39.581Z,4.00
2022-08-27T05:46:59.799Z,4.05
2022-08-27T05:49:26.307Z,3.95
2022-08-27T05:51:52.845Z,3.67
2022-08-27T05:54:19.724Z,4.40
2022-08-27T05:56:47.954Z,4.32
2022-08-27T05:59:34.620Z,3.90
2022-08-27T06:02:02.322Z,3.88
2022-08-27T06:04:28.871Z,4.50
2022-08-27T06:06:55.376Z,4.03
2022-08-27T06:09:25.011Z,4.05
2022-08-27T06:11:54.364Z,3.78
2022-08-27T06:14:21.068Z,4.18
2022-08-27T06:16:48.553Z,3.85
2022-08-27T06:19:15.203Z,3.95
2022-08-27T06:21:42.493Z,4.20
2022-08-27T06:24:12.255Z,5.22
2022-08-27T06:26:40.824Z,4.07
2022-08-27T06:29:09.448Z,4.00
2022-08-27T06:31:36.077Z,4.13
2022-08-27T06:34:07.672Z,3.70
2022-08-27T06:36:39.111Z,3.97
2022-08-27T06:39:07.258Z,4.50
2022-08-27T06:41:35.072Z,4.03
2022-08-27T06:44:01.612Z,3.90
2022-08-27T06:46:29.650Z,3.60
2022-08-27T06:48:59.422Z,3.85
2022-08-27T06:51:32.447Z,3.92
2022-08-27T06:54:02.070Z,4.80
2022-08-27T06:56:29.806Z,3.70
2022-08-27T06:58:58.569Z,4.07
2022-08-27T07:01:31.597Z,4.38
2022-08-27T07:04:00.403Z,4.30
2022-08-27T07:06:29.431Z,4.22
2022-08-27T07:08:57.192Z,4.13
2022-08-27T07:11:24.286Z,3.95
2022-08-27T07:13:51.447Z,3.92
2022-08-27T07:16:23.961Z,3.38
2022-08-27T07:18:52.695Z,4.28
2022-08-27T07:21:20.285Z,4.05
2022-08-27T07:23:48.970Z,3.70
2022-08-27T07:26:16.308Z,4.03
2022-08-27T07:28:44.536Z,4.30
2022-08-27T07:31:13.535Z,4.05
2022-08-27T07:33:42.176Z,4.20
2022-08-27T07:36:18.864Z,3.60
2022-08-27T07:38:46.232Z,3.92
2022-08-27T07:41:23.449Z,3.92
2022-08-27T07:44:15.460Z,4.88
2022-08-27T07:46:47.577Z,5.90
2022-08-27T07:49:15.218Z,5.45
2022-08-27T07:51:41.708Z,69.32
2022-08-27T07:54:09.012Z,9.65
2022-08-27T07:56:35.523Z,6.32
2022-08-27T07:59:02.038Z,5.03
2022-08-27T08:01:29.675Z,29.25
2022-08-27T08:03:56.932Z,9.55
2022-08-27T08:06:23.462Z,16.23
2022-08-27T08:08:50.134Z,10.20
2022-08-27T08:11:18.572Z,6.72
2022-08-27T08:13:46.416Z,4.70
2022-08-27T08:16:13.549Z,5.00
2022-08-27T08:18:40.676Z,6.75
2022-08-27T08:21:13.115Z,4.15
2022-08-27T08:23:40.606Z,5.13
2022-08-27T08:26:08.322Z,4.20
2022-08-27T08:28:34.851Z,3.92
2022-08-27T08:31:01.649Z,3.88
2022-08-27T08:33:29.727Z,3.80
2022-08-27T08:36:03.285Z,3.67
2022-08-27T08:38:30.024Z,4.03
2022-08-27T08:40:56.620Z,3.55
2022-08-27T08:43:38.212Z,3.78
2022-08-27T08:46:33.964Z,3.67
2022-08-27T08:49:34.943Z,4.35
2022-08-27T08:52:30.430Z,3.97
2022-08-27T08:55:34.541Z,4.35
2022-08-27T08:58:06.822Z,3.83
2022-08-27T09:00:33.602Z,4.88
2022-08-27T09:03:00.129Z,4.68
2022-08-27T09:05:27.179Z,4.13
2022-08-27T09:08:21.314Z,5.30
2022-08-27T09:11:15.346Z,5.13
2022-08-27T09:13:51.710Z,4.85
2022-08-27T09:16:18.958Z,3.95
2022-08-27T09:18:45.828Z,4.90
2022-08-27T09:21:29.921Z,4.60
2022-08-27T09:24:27.569Z,5.15
2022-08-27T09:26:54.374Z,4.70
2022-08-27T09:29:21.011Z,4.68
2022-08-27T09:31:55.744Z,4.88
2022-08-27T09:34:23.568Z,4.55
2022-08-27T09:36:55.369Z,5.15
2022-08-27T09:39:32.600Z,4.90
2022-08-27T09:41:59.680Z,4.50
2022-08-27T09:44:26.409Z,3.85
2022-08-27T09:47:03.876Z,4.95
2022-08-27T09:49:34.505Z,4.00
2022-08-27T09:52:02.267Z,4.20
2022-08-27T09:54:44.378Z,4.13
2022-08-27T09:57:15.244Z,3.47
2022-08-27T09:59:53.191Z,3.10
2022-08-27T10:02:25.611Z,3.30
2022-08-27T10:04:55.505Z,3.67
2022-08-27T10:07:41.636Z,3.90
2022-08-27T10:10:22.112Z,3.90
2022-08-27T10:13:18.658Z,3.25
2022-08-27T10:16:06.506Z,2.97
2022-08-27T10:18:59.572Z,2.67
2022-08-27T10:24:26.809Z,2.47
2022-08-27T10:26:59.459Z,2.78
2022-08-27T10:29:57.660Z,3.15
2022-08-27T10:32:32.400Z,3.00
2022-08-27T10:35:17.928Z,2.05
2022-08-27T10:38:13.876Z,2.45
2022-08-27T10:41:02.405Z,2.38
2022-08-27T10:43:47.089Z,2.00
2022-08-27T10:46:39.357Z,2.30
2022-08-27T10:49:26.873Z,2.00
2022-08-27T10:52:18.663Z,1.95
2022-08-27T10:54:59.069Z,1.43
2022-08-27T10:57:56.354Z,1.83
2022-08-27T11:00:41.894Z,1.33
2022-08-27T11:03:26.229Z,1.40
2022-08-27T11:06:03.436Z,1.50
2022-08-27T11:08:54.085Z,1.80
2022-08-27T11:14:30.527Z,1.60
2022-08-27T11:17:04.454Z,1.63
2022-08-27T11:19:47.365Z,1.60
2022-08-27T11:22:26.509Z,1.40
2022-08-27T11:25:15.084Z,1.67
2022-08-27T11:27:42.920Z,1.42
2022-08-27T11:30:47.840Z,1.65
2022-08-27T11:33:52.405Z,1.77
2022-08-27T11:36:28.043Z,1.40
2022-08-27T11:39:05.155Z,1.73
2022-08-27T11:42:09.354Z,1.38
2022-08-27T11:44:42.812Z,1.55
2022-08-27T11:47:09.416Z,1.27
2022-08-27T11:49:47.620Z,1.30
2022-08-27T11:52:41.209Z,1.05
2022-08-27T11:55:14.574Z,1.48
2022-08-27T11:57:42.815Z,1.45
2022-08-27T12:00:20.530Z,1.33
2022-08-27T12:03:23.410Z,1.15
2022-08-27T12:06:07.665Z,1.00
2022-08-27T12:08:35.521Z,0.90
2022-08-27T12:11:01.956Z,1.17
2022-08-27T12:13:41.380Z,0.98
2022-08-27T12:16:12.618Z,0.88
2022-08-27T12:19:10.212Z,1.48
2022-08-27T12:21:39.431Z,1.10
2022-08-27T12:24:37.366Z,1.13
2022-08-27T12:27:21.944Z,1.10
2022-08-27T12:29:58.171Z,1.20
2022-08-27T12:32:29.883Z,1.05
2022-08-27T12:37:36.178Z,1.23
2022-08-27T12:40:20.625Z,1.33
2022-08-27T12:42:50.548Z,1.40
2022-08-27T12:45:25.578Z,1.13
2022-08-27T12:47:55.324Z,1.60
2022-08-27T12:50:30.596Z,1.45
2022-08-27T12:53:15.806Z,1.83
2022-08-27T12:55:59.925Z,1.70
2022-08-27T12:58:26.347Z,1.70
2022-08-27T13:01:11.801Z,1.70
2022-08-27T13:03:42.419Z,1.65
2022-08-27T13:06:35.935Z,1.60
2022-08-27T13:09:05.737Z,1.77
2022-08-27T13:11:35.994Z,1.85
2022-08-27T13:14:12.324Z,1.40
2022-08-27T13:16:46.717Z,1.40
2022-08-27T13:19:21.670Z,1.60
2022-08-27T13:21:51.012Z,1.88
2022-08-27T13:24:35.503Z,1.50
2022-08-27T13:27:05.294Z,2.00
2022-08-27T13:29:33.029Z,1.70
2022-08-27T13:32:00.427Z,2.00
2022-08-27T13:34:32.348Z,2.00
2022-08-27T13:39:30.829Z,2.33
2022-08-27T13:42:02.448Z,2.38
2022-08-27T13:44:37.766Z,2.65
2022-08-27T13:47:14.298Z,2.28
2022-08-27T13:49:41.096Z,2.47
2022-08-27T13:53:01.862Z,2.25
2022-08-27T13:55:30.447Z,2.83
2022-08-27T13:58:00.396Z,2.85
2022-08-27T14:00:32.782Z,2.92
2022-08-27T14:05:33.868Z,3.28
2022-08-27T14:08:12.296Z,3.50
2022-08-27T14:10:44.365Z,3.20
2022-08-27T14:13:22.796Z,3.42
2022-08-27T14:15:58.518Z,3.10
2022-08-27T14:18:57.315Z,3.50
2022-08-27T14:21:18.544Z,5.57
2022-08-27T14:23:45.043Z,6.28
2022-08-27T14:26:13.397Z,6.90
2022-08-27T14:28:39.872Z,6.03
2022-08-27T14:31:06.507Z,5.95
2022-08-27T14:33:33.098Z,6.38
2022-08-27T14:35:59.755Z,6.65
2022-08-27T14:38:31.663Z,6.50
2022-08-27T14:40:58.591Z,7.97
2022-08-27T14:43:25.772Z,9.10
2022-08-27T14:45:53.427Z,8.65
2022-08-27T14:48:28.985Z,8.73
2022-08-27T14:50:56.731Z,9.73
2022-08-27T14:53:23.464Z,8.68
2022-08-27T14:55:51.641Z,7.85
2022-08-27T14:58:18.676Z,8.20
2022-08-27T15:00:45.185Z,11.50
2022-08-27T15:03:12.079Z,11.30
2022-08-27T15:05:38.685Z,9.98
2022-08-27T15:08:05.301Z,10.02
2022-08-27T15:10:32.333Z,8.32
2022-08-27T15:12:59.080Z,10.27
2022-08-27T15:15:25.570Z,10.77
2022-08-27T15:17:52.056Z,9.65
2022-08-27T15:20:19.808Z,10.93
2022-08-27T15:22:48.254Z,10.38
2022-08-27T15:25:15.444Z,10.40
2022-08-27T15:27:42.032Z,9.82
2022-08-27T15:30:12.256Z,10.45
2022-08-27T15:32:46.528Z,9.55
2022-08-27T15:35:17.195Z,10.77
2022-08-27T15:37:44.655Z,9.95
2022-08-27T15:40:13.189Z,9.15
2022-08-27T15:42:40.687Z,10.07
2022-08-27T15:45:08.272Z,10.32
2022-08-27T15:47:36.033Z,10.27
2022-08-27T15:50:02.615Z,9.93
2022-08-27T15:52:36.373Z,11.15
2022-08-27T15:55:14.805Z,10.93
2022-08-27T15:57:41.304Z,11.35
2022-08-27T16:00:08.974Z,11.38
2022-08-27T16:02:35.648Z,12.65
2022-08-27T16:05:02.241Z,12.30
2022-08-27T16:07:28.708Z,12.13
2022-08-27T16:09:55.325Z,11.20
2022-08-27T16:12:26.818Z,12.77
2022-08-27T16:14:54.973Z,12.00
2022-08-27T16:17:21.673Z,12.02
2022-08-27T16:19:48.269Z,11.63
2022-08-27T16:22:16.169Z,11.43
2022-08-27T16:24:42.668Z,12.13
2022-08-27T16:27:09.315Z,13.18
2022-08-27T16:29:35.785Z,14.75
2022-08-27T16:32:02.658Z,12.93
2022-08-27T16:34:29.374Z,13.35
2022-08-27T16:36:56.555Z,13.23
2022-08-27T16:39:23.534Z,12.65
2022-08-27T16:41:50.369Z,13.07
2022-08-27T16:44:17.665Z,12.90
2022-08-27T16:46:44.256Z,14.32
2022-08-27T16:49:29.225Z,13.68
2022-08-27T16:51:55.772Z,13.45
2022-08-27T16:54:22.554Z,13.70
2022-08-27T16:56:49.700Z,12.85
2022-08-27T16:59:16.714Z,13.38
2022-08-27T17:01:45.399Z,13.23
2022-08-27T17:04:19.393Z,12.25
2022-08-27T17:06:54.757Z,12.48
2022-08-27T17:09:21.377Z,14.07
2022-08-27T17:11:54.823Z,13.30
2022-08-27T17:14:21.475Z,13.07
2022-08-27T17:16:48.297Z,14.27
2022-08-27T17:19:16.859Z,15.18
2022-08-27T17:21:45.296Z,14.00
2022-08-27T17:24:13.109Z,13.38
2022-08-27T17:26:40.479Z,14.02
2022-08-27T17:29:06.969Z,14.15
2022-08-27T17:31:37.154Z,14.93
2022-08-27T17:34:06.965Z,14.32
2022-08-27T17:36:34.705Z,13.50
2022-08-27T17:39:02.687Z,13.48
2022-08-27T17:41:36.652Z,14.63
2022-08-27T17:44:07.713Z,13.95
2022-08-27T17:46:34.186Z,13.38
2022-08-27T17:49:00.782Z,14.85
2022-08-27T17:51:27.958Z,14.48
2022-08-27T17:54:00.567Z,13.95
2022-08-27T17:56:29.729Z,15.38
2022-08-27T17:58:56.634Z,16.45
2022-08-27T18:01:28.357Z,14.98
2022-08-27T18:03:56.799Z,12.55
2022-08-27T18:06:24.348Z,14.60
2022-08-27T18:08:51.201Z,13.88
2022-08-27T18:11:17.852Z,12.50
2022-08-27T18:13:48.122Z,14.00
2022-08-27T18:16:14.586Z,14.07
2022-08-27T18:18:41.375Z,14.13
2022-08-27T18:21:08.413Z,15.18
2022-08-27T18:23:37.117Z,15.63
2022-08-27T18:26:05.412Z,14.07
2022-08-27T18:28:34.051Z,13.18
2022-08-27T18:31:05.618Z,12.85
2022-08-27T18:33:33.229Z,12.40
2022-08-27T18:35:59.746Z,12.18
2022-08-27T18:38:26.779Z,12.52
2022-08-27T18:40:54.604Z,12.93
2022-08-27T18:43:29.666Z,13.32
2022-08-27T18:45:56.399Z,13.00
2022-08-27T18:48:23.770Z,12.35
2022-08-27T18:50:55.491Z,12.30
2022-08-27T18:53:22.049Z,12.00
2022-08-27T18:55:49.445Z,12.07
2022-08-27T18:58:16.934Z,12.85
2022-08-27T19:00:47.078Z,14.23
2022-08-27T19:03:20.234Z,13.93
2022-08-27T19:05:46.710Z,13.90
2022-08-27T19:08:13.444Z,12.00
2022-08-27T19:10:40.026Z,13.75
2022-08-27T19:13:06.531Z,12.27
2022-08-27T19:15:33.101Z,11.82
2022-08-27T19:18:03.131Z,12.32
2022-08-27T19:20:31.433Z,12.77
2022-08-27T19:22:59.364Z,12.48
2022-08-27T19:25:27.921Z,12.57
2022-08-27T19:27:55.584Z,12.48
2022-08-27T19:30:22.323Z,12.27
2022-08-27T19:32:48.937Z,13.30
2022-08-27T19:37:52.816Z,11.82
2022-08-27T19:40:22.116Z,13.13
2022-08-27T19:42:49.531Z,13.27
2022-08-27T19:45:15.987Z,12.93
2022-08-27T19:47:50.834Z,12.57
2022-08-27T19:50:17.986Z,11.73
2022-08-27T19:52:44.724Z,10.98
2022-08-27T19:55:14.335Z,10.63
2022-08-27T19:57:42.260Z,8.98
2022-08-27T20:00:11.440Z,8.23
2022-08-27T20:02:38.125Z,6.93
2022-08-27T20:05:22.032Z,7.18
2022-08-27T20:07:50.166Z,6.07
2022-08-27T20:10:18.921Z,6.45
2022-08-27T20:12:45.435Z,6.13
2022-08-27T20:15:13.304Z,5.80
2022-08-27T20:17:40.699Z,5.55
2022-08-27T20:20:08.305Z,6.50
2022-08-27T20:22:34.766Z,5.70
2022-08-27T20:25:01.266Z,6.30
2022-08-27T20:27:28.389Z,5.50
2022-08-27T20:29:54.898Z,6.03
2022-08-27T20:32:22.806Z,5.65
2022-08-27T20:34:51.505Z,6.22
2022-08-27T20:37:18.362Z,5.95
2022-08-27T20:39:45.077Z,5.55
2022-08-27T20:42:11.716Z,4.88
2022-08-27T20:44:38.573Z,5.00
2022-08-27T20:47:06.262Z,5.40
2022-08-27T20:49:35.153Z,6.47
2022-08-27T20:52:04.189Z,5.75
2022-08-27T20:54:33.733Z,6.22
2022-08-27T20:57:00.946Z,5.28
2022-08-27T20:59:46.140Z,5.93
2022-08-27T21:02:14.934Z,5.50
2022-08-27T21:04:47.785Z,5.28
2022-08-27T21:07:16.398Z,5.30
2022-08-27T21:09:56.225Z,5.80
2022-08-27T21:12:25.531Z,5.07
2022-08-27T21:14:55.806Z,5.15
2022-08-27T21:17:24.666Z,5.72
2022-08-27T21:19:51.191Z,6.70
2022-08-27T21:22:18.010Z,5.30
2022-08-27T21:24:46.318Z,6.57
2022-08-27T21:27:13.525Z,5.90
2022-08-27T21:29:40.750Z,5.75
2022-08-27T21:32:07.313Z,5.90
2022-08-27T21:34:33.770Z,5.82
2022-08-27T21:37:00.289Z,5.57
2022-08-27T21:39:26.763Z,6.03
2022-08-27T21:41:54.361Z,6.22
2022-08-27T21:44:22.416Z,5.90
2022-08-27T21:46:48.926Z,6.35
2022-08-27T21:49:15.441Z,5.25
2022-08-27T21:51:42.008Z,5.40
2022-08-27T21:54:08.506Z,6.07
2022-08-27T21:56:35.000Z,5.47
2022-08-27T21:59:01.487Z,5.90
2022-08-27T22:01:28.323Z,5.57
2022-08-27T22:03:55.219Z,5.72
2022-08-27T22:06:21.753Z,5.88
2022-08-27T22:08:48.578Z,5.68
2022-08-27T22:11:15.333Z,5.80
2022-08-27T22:13:41.955Z,5.95
2022-08-27T22:16:08.528Z,6.22
2022-08-27T22:18:35.142Z,6.70
2022-08-27T22:21:05.607Z,6.10
2022-08-27T22:23:32.109Z,6.80
2022-08-27T22:25:58.945Z,6.45
2022-08-27T22:28:25.707Z,6.65
2022-08-27T22:30:52.202Z,6.57
2022-08-27T22:33:18.944Z,5.88
2022-08-27T22:35:45.400Z,6.28
2022-08-27T22:38:12.019Z,6.25
2022-08-27T22:40:39.383Z,6.40
2022-08-27T22:43:06.730Z,6.80
2022-08-27T22:45:34.588Z,6.13
2022-08-27T22:48:01.050Z,6.50
2022-08-27T22:50:27.569Z,6.18
2022-08-27T22:52:54.181Z,6.75
2022-08-27T22:55:22.373Z,6.22
2022-08-27T22:57:50.706Z,5.72
2022-08-27T23:00:21.328Z,6.13
2022-08-27T23:02:47.884Z,6.18
2022-08-27T23:05:16.363Z,6.47
2022-08-27T23:07:43.472Z,6.28
2022-08-27T23:10:12.533Z,5.72
2022-08-27T23:12:39.098Z,6.57
2022-08-27T23:15:08.445Z,6.43
2022-08-27T23:17:35.116Z,6.28
2022-08-27T23:20:02.131Z,6.00
2022-08-27T23:22:28.814Z,6.13
2022-08-27T23:25:13.535Z,6.28
2022-08-27T23:27:40.645Z,6.13
2022-08-27T23:30:08.067Z,6.75
2022-08-27T23:32:35.494Z,6.55
2022-08-27T23:35:02.335Z,6.45
2022-08-27T23:37:28.923Z,6.60
2022-08-27T23:39:55.819Z,6.10
2022-08-27T23:42:23.443Z,5.78
2022-08-27T23:44:50.444Z,6.78
2022-08-27T23:47:17.748Z,6.70
2022-08-27T23:49:44.428Z,6.53
2022-08-27T23:52:12.003Z,6.75
2022-08-27T23:54:38.621Z,7.40
2022-08-27T23:57:05.205Z,6.47
2022-08-27T23:59:31.769Z,6.95
